createdAt,value
2019-03-30T00:01:50.531Z,69.40
2019-03-30T00:04:19.838Z,62.47
2019-03-30T00:06:48.862Z,66.87
2019-03-30T00:09:17.851Z,70.07
2019-03-30T00:11:46.939Z,68.43
2019-03-30T00:14:15.946Z,71.80
2019-03-30T00:16:44.967Z,68.53
2019-03-30T00:19:14.099Z,73.07
2019-03-30T00:21:43.235Z,65.87
2019-03-30T00:24:12.237Z,65.27
2019-03-30T00:26:41.348Z,70.67
2019-03-30T00:29:10.351Z,70.27
2019-03-30T00:31:39.368Z,67.77
2019-03-30T00:34:08.501Z,62.80
2019-03-30T00:36:37.597Z,71.10
2019-03-30T00:39:06.919Z,69.10
2019-03-30T00:41:36.029Z,65.80
2019-03-30T00:44:05.198Z,64.50
2019-03-30T00:46:34.328Z,67.23
2019-03-30T00:49:03.307Z,61.03
2019-03-30T00:51:32.367Z,66.27
2019-03-30T00:54:01.371Z,70.80
2019-03-30T00:56:30.465Z,63.97
2019-03-30T00:58:59.496Z,66.47
2019-03-30T01:01:28.491Z,64.67
2019-03-30T01:03:57.505Z,65.20
2019-03-30T01:06:26.530Z,60.77
2019-03-30T01:08:55.551Z,61.87
2019-03-30T01:11:24.572Z,66.87
2019-03-30T01:13:53.577Z,62.07
2019-03-30T01:16:22.661Z,63.77
2019-03-30T01:18:51.679Z,59.47
2019-03-30T01:21:20.695Z,61.80
2019-03-30T01:23:49.747Z,64.03
2019-03-30T01:26:18.716Z,63.63
2019-03-30T01:28:47.704Z,66.17
2019-03-30T01:31:16.715Z,58.10
2019-03-30T01:33:45.734Z,59.53
2019-03-30T01:36:14.739Z,62.43
2019-03-30T01:38:43.766Z,63.77
2019-03-30T01:41:12.756Z,57.97
2019-03-30T01:43:41.735Z,61.50
2019-03-30T01:46:10.730Z,56.20
2019-03-30T01:48:39.729Z,56.83
2019-03-30T01:51:08.739Z,64.50
2019-03-30T01:53:37.753Z,61.83
2019-03-30T01:56:06.868Z,60.17
2019-03-30T01:58:35.932Z,55.57
2019-03-30T02:01:05.207Z,59.20
2019-03-30T02:03:34.213Z,54.47
2019-03-30T02:06:03.525Z,62.70
2019-03-30T02:08:32.887Z,56.90
2019-03-30T02:11:01.986Z,64.60
2019-03-30T02:13:31.075Z,59.33
2019-03-30T02:16:00.145Z,57.53
2019-03-30T02:18:29.137Z,52.80
2019-03-30T02:20:58.163Z,56.00
2019-03-30T02:23:27.478Z,59.23
2019-03-30T02:25:56.469Z,58.10
2019-03-30T02:28:25.475Z,57.70
2019-03-30T02:30:54.486Z,55.93
2019-03-30T02:33:23.499Z,58.47
2019-03-30T02:35:52.570Z,60.77
2019-03-30T02:38:21.581Z,58.03
2019-03-30T02:40:50.671Z,60.50
2019-03-30T02:43:19.668Z,59.93
2019-03-30T02:45:48.745Z,58.10
2019-03-30T02:48:17.755Z,62.20
2019-03-30T02:50:50.396Z,54.97
2019-03-30T02:53:17.563Z,56.27
2019-03-30T02:55:46.672Z,55.97
2019-03-30T02:58:15.765Z,58.60
2019-03-30T03:00:44.898Z,58.83
2019-03-30T03:03:14.141Z,60.70
2019-03-30T03:05:43.269Z,56.13
2019-03-30T03:08:12.516Z,56.03
2019-03-30T03:10:41.518Z,56.83
2019-03-30T03:13:10.554Z,67.13
2019-03-30T03:15:39.535Z,62.43
2019-03-30T03:18:08.543Z,66.53
2019-03-30T03:20:37.525Z,58.00
2019-03-30T03:23:06.537Z,61.83
2019-03-30T03:25:35.534Z,60.33
2019-03-30T03:28:04.543Z,55.83
2019-03-30T03:30:33.547Z,67.53
2019-03-30T03:33:02.568Z,63.67
2019-03-30T03:35:31.571Z,59.70
2019-03-30T03:38:00.600Z,55.77
2019-03-30T03:40:29.691Z,62.37
2019-03-30T03:42:59.073Z,66.23
2019-03-30T03:45:28.067Z,62.07
2019-03-30T03:47:57.183Z,58.47
2019-03-30T03:50:58.010Z,58.90
2019-03-30T03:53:27.104Z,58.33
2019-03-30T03:55:56.108Z,62.33
2019-03-30T03:58:26.915Z,59.50
2019-03-30T04:00:55.931Z,58.23
2019-03-30T04:03:24.922Z,60.13
2019-03-30T04:05:55.922Z,58.23
2019-03-30T04:08:24.946Z,56.40
2019-03-30T04:10:53.998Z,61.93
2019-03-30T04:13:23.017Z,49.17
2019-03-30T04:15:52.038Z,47.27
2019-03-30T04:18:21.093Z,52.50
2019-03-30T04:20:50.222Z,52.33
2019-03-30T04:23:19.611Z,58.37
2019-03-30T04:25:48.640Z,59.47
2019-03-30T04:28:17.731Z,56.20
2019-03-30T04:30:46.731Z,57.23
2019-03-30T04:33:15.747Z,57.20
2019-03-30T04:35:44.840Z,60.70
2019-03-30T04:38:14.478Z,54.63
2019-03-30T04:40:43.727Z,53.17
2019-03-30T04:43:12.735Z,55.43
2019-03-30T04:45:42.049Z,57.27
2019-03-30T04:48:11.350Z,51.17
2019-03-30T04:50:40.438Z,51.77
2019-03-30T04:53:09.581Z,58.93
2019-03-30T04:55:38.682Z,55.27
2019-03-30T04:58:09.397Z,55.93
2019-03-30T05:00:38.495Z,55.50
2019-03-30T05:03:07.491Z,55.37
2019-03-30T05:05:36.473Z,50.30
2019-03-30T05:08:05.507Z,52.13
2019-03-30T05:10:34.577Z,59.47
2019-03-30T05:13:03.580Z,54.20
2019-03-30T05:15:32.576Z,52.77
2019-03-30T05:18:01.706Z,50.77
2019-03-30T05:20:30.710Z,48.50
2019-03-30T05:22:59.714Z,49.87
2019-03-30T05:25:28.715Z,53.77
2019-03-30T05:27:57.720Z,49.63
2019-03-30T05:30:26.738Z,49.23
2019-03-30T05:33:05.608Z,46.97
2019-03-30T05:35:26.513Z,54.77
2019-03-30T05:37:55.535Z,50.77
2019-03-30T05:40:24.551Z,54.43
2019-03-30T05:42:53.563Z,47.73
2019-03-30T05:45:22.561Z,43.27
2019-03-30T05:47:51.633Z,50.83
2019-03-30T05:50:21.008Z,48.53
2019-03-30T05:52:50.004Z,48.00
2019-03-30T05:55:19.385Z,47.63
2019-03-30T05:57:48.402Z,49.70
2019-03-30T06:00:20.589Z,55.00
2019-03-30T06:02:49.693Z,50.33
2019-03-30T06:05:18.681Z,50.63
2019-03-30T06:07:47.748Z,50.43
2019-03-30T06:10:16.739Z,46.37
2019-03-30T06:12:45.736Z,45.60
2019-03-30T06:15:14.718Z,48.83
2019-03-30T06:17:43.814Z,39.30
2019-03-30T06:20:12.817Z,34.87
2019-03-30T06:22:41.830Z,37.53
2019-03-30T06:25:10.867Z,35.03
2019-03-30T06:27:39.922Z,40.17
2019-03-30T06:30:28.637Z,34.43
2019-03-30T06:32:57.625Z,34.27
2019-03-30T06:35:26.639Z,35.50
2019-03-30T06:37:55.641Z,35.50
2019-03-30T06:40:24.670Z,40.30
2019-03-30T06:42:53.699Z,41.90
2019-03-30T06:45:22.794Z,29.67
2019-03-30T06:47:51.808Z,28.60
2019-03-30T06:50:20.831Z,37.37
2019-03-30T06:52:57.432Z,36.13
2019-03-30T06:55:20.660Z,33.60
2019-03-30T06:57:49.824Z,34.67
2019-03-30T07:00:22.517Z,35.00
2019-03-30T07:02:51.529Z,27.50
2019-03-30T07:05:20.543Z,27.83
2019-03-30T07:07:49.591Z,32.57
2019-03-30T07:10:18.592Z,35.27
2019-03-30T07:12:47.785Z,36.80
2019-03-30T07:15:16.791Z,15.47
2019-03-30T07:17:47.021Z,28.27
2019-03-30T07:20:27.257Z,31.27
2019-03-30T07:23:10.756Z,40.60
2019-03-30T07:25:28.033Z,25.30
2019-03-30T07:27:57.498Z,27.73
2019-03-30T07:30:26.489Z,30.03
2019-03-30T07:32:55.525Z,31.37
2019-03-30T07:35:24.586Z,26.57
2019-03-30T07:37:53.586Z,30.07
2019-03-30T07:40:22.569Z,25.60
2019-03-30T07:42:51.579Z,26.27
2019-03-30T07:45:20.598Z,25.80
2019-03-30T07:47:49.679Z,31.17
2019-03-30T07:50:18.787Z,28.57
2019-03-30T07:52:47.798Z,24.43
2019-03-30T07:55:16.835Z,25.83
2019-03-30T07:57:45.830Z,30.67
2019-03-30T08:00:15.039Z,29.90
2019-03-30T08:02:44.081Z,28.47
2019-03-30T08:05:13.080Z,24.20
2019-03-30T08:07:42.641Z,23.47
2019-03-30T08:10:11.750Z,24.00
2019-03-30T08:12:40.769Z,23.90
2019-03-30T08:15:10.358Z,24.03
2019-03-30T08:17:39.453Z,23.20
2019-03-30T08:20:08.804Z,19.87
2019-03-30T08:22:38.040Z,29.23
2019-03-30T08:25:07.397Z,19.13
2019-03-30T08:27:36.682Z,23.00
2019-03-30T08:30:06.907Z,22.83
2019-03-30T08:32:35.917Z,22.57
2019-03-30T08:35:05.263Z,27.70
2019-03-30T08:37:34.274Z,26.97
2019-03-30T08:40:03.283Z,25.90
2019-03-30T08:42:32.314Z,22.93
2019-03-30T08:45:01.423Z,27.50
2019-03-30T08:47:30.444Z,22.63
2019-03-30T08:49:59.464Z,26.17
2019-03-30T08:52:28.459Z,23.07
2019-03-30T08:54:57.471Z,24.93
2019-03-30T08:57:26.481Z,27.50
2019-03-30T08:59:55.492Z,26.37
2019-03-30T09:02:24.517Z,30.10
2019-03-30T09:04:53.527Z,23.87
2019-03-30T09:07:22.539Z,23.83
2019-03-30T09:09:51.541Z,29.10
2019-03-30T09:12:20.777Z,38.97
2019-03-30T09:14:49.795Z,26.47
2019-03-30T09:17:18.814Z,32.10
2019-03-30T09:19:47.819Z,27.93
2019-03-30T09:22:17.094Z,24.80
2019-03-30T09:24:46.108Z,29.83
2019-03-30T09:27:15.135Z,28.80
2019-03-30T09:29:44.115Z,28.03
2019-03-30T09:32:15.052Z,32.03
2019-03-30T09:34:44.156Z,31.30
2019-03-30T09:37:13.169Z,25.60
2019-03-30T09:39:42.411Z,42.47
2019-03-30T09:42:11.412Z,25.07
2019-03-30T09:44:40.419Z,34.93
2019-03-30T09:47:09.471Z,24.80
2019-03-30T09:49:38.583Z,26.37
2019-03-30T09:52:08.189Z,30.73
2019-03-30T09:54:37.183Z,33.63
2019-03-30T09:57:06.530Z,21.43
2019-03-30T09:59:35.948Z,35.23
2019-03-30T10:02:05.399Z,26.53
2019-03-30T10:04:34.693Z,22.43
2019-03-30T10:07:03.685Z,20.03
2019-03-30T10:09:32.768Z,31.47
2019-03-30T10:12:03.912Z,24.33
2019-03-30T10:14:33.210Z,24.13
2019-03-30T10:17:02.219Z,38.53
2019-03-30T10:19:31.505Z,24.97
2019-03-30T10:22:00.535Z,25.80
2019-03-30T10:24:37.901Z,29.47
2019-03-30T10:27:00.295Z,22.07
2019-03-30T10:29:29.632Z,30.00
2019-03-30T10:32:00.020Z,42.80
2019-03-30T10:34:29.116Z,23.17
2019-03-30T10:36:58.130Z,24.33
2019-03-30T10:39:27.161Z,29.27
2019-03-30T10:41:56.473Z,30.10
2019-03-30T10:44:25.770Z,30.13
2019-03-30T10:46:54.894Z,26.77
2019-03-30T10:49:23.886Z,25.70
2019-03-30T10:51:54.455Z,25.60
2019-03-30T10:54:23.648Z,28.97
2019-03-30T10:56:52.643Z,30.47
2019-03-30T10:59:21.657Z,26.10
2019-03-30T11:01:50.676Z,20.73
2019-03-30T11:04:19.705Z,26.47
2019-03-30T11:06:48.712Z,37.57
2019-03-30T11:09:17.738Z,32.07
2019-03-30T11:11:46.834Z,29.37
2019-03-30T11:14:15.871Z,34.67
2019-03-30T11:16:44.883Z,28.10
2019-03-30T11:19:13.891Z,30.20
2019-03-30T11:21:42.915Z,38.83
2019-03-30T11:24:11.930Z,28.43
2019-03-30T11:26:40.966Z,31.57
2019-03-30T11:29:10.057Z,35.63
2019-03-30T11:31:39.045Z,32.63
2019-03-30T11:34:08.560Z,36.77
2019-03-30T11:36:37.857Z,31.57
2019-03-30T11:39:06.916Z,26.03
2019-03-30T11:41:35.922Z,32.27
2019-03-30T11:44:04.950Z,31.20
2019-03-30T11:46:33.989Z,24.27
2019-03-30T11:49:02.993Z,32.37
2019-03-30T11:51:32.158Z,25.30
2019-03-30T11:54:01.111Z,24.90
2019-03-30T11:56:30.177Z,24.17
2019-03-30T11:58:59.211Z,31.17
2019-03-30T12:01:28.231Z,28.60
2019-03-30T12:03:57.245Z,27.77
2019-03-30T12:06:26.503Z,24.93
2019-03-30T12:08:55.862Z,26.63
2019-03-30T12:11:24.876Z,27.73
2019-03-30T12:13:53.903Z,30.37
2019-03-30T12:16:22.919Z,22.10
2019-03-30T12:18:51.943Z,28.17
2019-03-30T12:21:20.963Z,31.10
2019-03-30T12:23:49.984Z,27.03
2019-03-30T12:26:19.234Z,24.67
2019-03-30T12:28:48.271Z,19.53
2019-03-30T12:31:17.291Z,25.27
2019-03-30T12:33:46.331Z,25.77
2019-03-30T12:36:15.626Z,21.93
2019-03-30T12:38:44.648Z,22.27
2019-03-30T12:41:13.685Z,26.43
2019-03-30T12:43:43.151Z,22.27
2019-03-30T12:46:12.158Z,23.93
2019-03-30T12:48:41.204Z,21.53
2019-03-30T12:51:10.190Z,21.03
2019-03-30T12:53:49.455Z,23.77
2019-03-30T12:56:09.920Z,26.03
2019-03-30T12:58:39.216Z,20.80
2019-03-30T13:01:08.291Z,21.17
2019-03-30T13:03:37.402Z,21.50
2019-03-30T13:06:06.419Z,16.33
2019-03-30T13:08:35.472Z,16.73
2019-03-30T13:11:04.518Z,17.30
2019-03-30T13:13:33.547Z,17.40
2019-03-30T13:16:02.571Z,20.57
2019-03-30T13:18:31.662Z,18.33
2019-03-30T13:21:00.679Z,19.80
2019-03-30T13:23:29.703Z,18.80
2019-03-30T13:26:03.989Z,13.27
2019-03-30T13:28:29.426Z,20.37
2019-03-30T13:30:58.420Z,20.03
2019-03-30T13:33:27.456Z,20.47
2019-03-30T13:35:56.466Z,18.73
2019-03-30T13:38:25.948Z,19.60
2019-03-30T13:40:55.053Z,21.40
2019-03-30T13:43:24.067Z,12.17
2019-03-30T13:45:53.070Z,12.63
2019-03-30T13:48:22.112Z,13.20
2019-03-30T13:50:51.128Z,16.30
2019-03-30T13:53:20.139Z,13.67
2019-03-30T13:55:49.175Z,17.60
2019-03-30T13:58:18.246Z,14.33
2019-03-30T14:00:47.262Z,14.50
2019-03-30T14:03:16.291Z,14.97
2019-03-30T14:05:45.643Z,19.20
2019-03-30T14:08:14.948Z,18.60
2019-03-30T14:10:44.066Z,16.07
2019-03-30T14:13:13.094Z,15.77
2019-03-30T14:15:42.100Z,10.87
2019-03-30T14:18:11.205Z,17.23
2019-03-30T14:20:40.185Z,19.27
2019-03-30T14:23:09.207Z,15.63
2019-03-30T14:25:38.242Z,16.40
2019-03-30T14:28:07.268Z,13.03
2019-03-30T14:30:36.258Z,14.83
2019-03-30T14:33:05.269Z,13.23
2019-03-30T14:35:34.269Z,10.47
2019-03-30T14:38:03.363Z,14.70
2019-03-30T14:40:32.381Z,13.03
2019-03-30T14:43:01.650Z,12.77
2019-03-30T14:45:30.636Z,11.90
2019-03-30T14:47:59.935Z,11.27
2019-03-30T14:50:28.939Z,10.67
2019-03-30T14:52:58.248Z,9.37
2019-03-30T14:55:27.213Z,8.90
2019-03-30T14:57:56.469Z,11.47
2019-03-30T15:00:25.585Z,8.97
2019-03-30T15:02:54.757Z,12.37
2019-03-30T15:05:23.701Z,10.40
2019-03-30T15:07:53.003Z,9.47
2019-03-30T15:10:22.015Z,11.23
2019-03-30T15:12:51.020Z,12.77
2019-03-30T15:15:20.033Z,12.53
2019-03-30T15:17:49.042Z,11.90
2019-03-30T15:20:18.324Z,12.17
2019-03-30T15:22:47.710Z,12.33
2019-03-30T15:25:16.982Z,15.57
2019-03-30T15:27:46.003Z,11.40
2019-03-30T15:30:16.056Z,14.13
2019-03-30T15:32:45.074Z,14.87
2019-03-30T15:35:14.236Z,12.90
2019-03-30T15:37:43.249Z,13.50
2019-03-30T15:40:12.342Z,10.03
2019-03-30T15:42:41.372Z,16.87
2019-03-30T15:45:10.489Z,12.23
2019-03-30T15:47:39.494Z,13.30
2019-03-30T15:50:08.598Z,12.17
2019-03-30T15:52:37.613Z,14.33
2019-03-30T15:55:06.688Z,15.37
2019-03-30T15:57:35.701Z,12.73
2019-03-30T16:00:07.047Z,13.53
2019-03-30T16:02:36.301Z,14.97
2019-03-30T16:05:05.701Z,12.93
2019-03-30T16:07:34.731Z,15.20
2019-03-30T16:10:04.150Z,9.83
2019-03-30T16:12:33.195Z,11.47
2019-03-30T16:15:02.222Z,13.93
2019-03-30T16:17:31.573Z,11.87
2019-03-30T16:20:00.578Z,10.33
2019-03-30T16:22:29.868Z,13.20
2019-03-30T16:24:58.898Z,10.50
2019-03-30T16:27:29.403Z,15.33
2019-03-30T16:29:59.145Z,12.53
2019-03-30T16:32:28.159Z,10.30
2019-03-30T16:34:57.180Z,14.17
2019-03-30T16:37:27.005Z,9.63
2019-03-30T16:39:56.330Z,12.50
2019-03-30T16:42:25.347Z,9.93
2019-03-30T16:44:54.463Z,10.93
2019-03-30T16:47:23.474Z,8.90
2019-03-30T16:49:52.820Z,9.53
2019-03-30T16:52:22.236Z,14.80
2019-03-30T16:54:51.326Z,13.43
2019-03-30T16:57:20.312Z,13.77
2019-03-30T16:59:49.419Z,11.53
2019-03-30T17:02:18.452Z,14.97
2019-03-30T17:04:47.448Z,11.57
2019-03-30T17:07:16.473Z,12.77
2019-03-30T17:09:45.555Z,11.40
2019-03-30T17:12:14.691Z,10.93
2019-03-30T17:14:43.604Z,13.40
2019-03-30T17:17:13.033Z,9.00
2019-03-30T17:19:42.045Z,10.10
2019-03-30T17:22:11.299Z,13.33
2019-03-30T17:24:40.406Z,10.13
2019-03-30T17:27:09.506Z,14.90
2019-03-30T17:29:38.592Z,13.07
2019-03-30T17:32:07.774Z,21.47
2019-03-30T17:34:36.849Z,12.80
2019-03-30T17:37:05.956Z,25.17
2019-03-30T17:39:35.038Z,25.43
2019-03-30T17:42:04.072Z,34.47
2019-03-30T17:44:33.164Z,41.27
2019-03-30T17:47:02.265Z,42.77
2019-03-30T17:49:31.293Z,38.83
2019-03-30T17:52:00.298Z,42.10
2019-03-30T17:54:29.294Z,42.73
2019-03-30T17:56:58.303Z,47.67
2019-03-30T17:59:27.394Z,50.00
2019-03-30T18:01:56.747Z,56.30
2019-03-30T18:04:25.789Z,48.40
2019-03-30T18:06:54.825Z,51.00
2019-03-30T18:09:23.824Z,47.03
2019-03-30T18:11:52.836Z,39.97
2019-03-30T18:14:21.832Z,49.07
2019-03-30T18:16:50.827Z,55.20
2019-03-30T18:19:19.860Z,54.63
2019-03-30T18:21:48.943Z,64.87
2019-03-30T18:24:18.027Z,55.87
2019-03-30T18:26:46.998Z,62.03
2019-03-30T18:29:16.027Z,59.33
2019-03-30T18:31:45.023Z,58.07
2019-03-30T18:34:14.129Z,54.47
2019-03-30T18:36:43.500Z,54.63
2019-03-30T18:39:12.547Z,54.77
2019-03-30T18:41:41.530Z,56.30
2019-03-30T18:44:10.554Z,52.80
2019-03-30T18:46:39.621Z,54.27
2019-03-30T18:49:08.657Z,56.00
2019-03-30T18:51:37.739Z,65.40
2019-03-30T18:54:06.809Z,59.67
2019-03-30T18:56:36.127Z,65.57
2019-03-30T18:59:05.130Z,58.17
2019-03-30T19:01:34.480Z,74.97
2019-03-30T19:04:03.814Z,77.67
2019-03-30T19:06:32.809Z,62.83
2019-03-30T19:09:01.806Z,86.03
2019-03-30T19:11:31.079Z,84.43
2019-03-30T19:14:00.107Z,83.83
2019-03-30T19:16:29.102Z,86.00
2019-03-30T19:18:58.175Z,88.40
2019-03-30T19:21:27.484Z,80.07
2019-03-30T19:23:56.510Z,75.43
2019-03-30T19:26:25.537Z,102.30
2019-03-30T19:28:56.618Z,80.73
2019-03-30T19:31:25.712Z,73.63
2019-03-30T19:33:54.822Z,88.13
2019-03-30T19:36:24.113Z,87.90
2019-03-30T19:38:53.269Z,87.07
2019-03-30T19:41:22.350Z,88.50
2019-03-30T19:43:51.707Z,78.23
2019-03-30T19:46:20.743Z,80.43
2019-03-30T19:48:49.764Z,78.10
2019-03-30T19:51:18.831Z,91.07
2019-03-30T19:53:48.072Z,80.50
2019-03-30T19:56:17.393Z,72.07
2019-03-30T19:58:46.453Z,80.77
2019-03-30T20:01:15.513Z,79.57
2019-03-30T20:03:44.553Z,75.03
2019-03-30T20:06:13.574Z,73.03
2019-03-30T20:08:42.596Z,68.33
2019-03-30T20:11:11.601Z,84.57
2019-03-30T20:13:40.618Z,63.90
2019-03-30T20:16:09.633Z,66.13
2019-03-30T20:18:38.678Z,71.50
2019-03-30T20:21:07.934Z,70.53
2019-03-30T20:23:37.034Z,77.43
2019-03-30T20:26:06.034Z,58.83
2019-03-30T20:28:35.371Z,77.47
2019-03-30T20:31:04.406Z,86.20
2019-03-30T20:33:33.435Z,73.90
2019-03-30T20:36:02.442Z,75.10
2019-03-30T20:38:31.458Z,78.27
2019-03-30T20:41:00.539Z,79.33
2019-03-30T20:43:29.811Z,78.83
2019-03-30T20:45:58.822Z,71.77
2019-03-30T20:48:28.103Z,81.73
2019-03-30T20:50:57.226Z,68.07
2019-03-30T20:53:26.238Z,73.90
2019-03-30T20:55:55.394Z,71.23
2019-03-30T20:58:24.691Z,85.60
2019-03-30T21:00:53.689Z,79.87
2019-03-30T21:03:23.039Z,77.17
2019-03-30T21:05:52.031Z,81.17
2019-03-30T21:08:21.085Z,77.57
2019-03-30T21:10:50.102Z,72.63
2019-03-30T21:13:19.456Z,70.80
2019-03-30T21:15:48.563Z,75.47
2019-03-30T21:18:17.722Z,73.20
2019-03-30T21:20:46.812Z,91.60
2019-03-30T21:23:15.879Z,83.70
2019-03-30T21:25:44.894Z,78.27
2019-03-30T21:28:13.939Z,87.63
2019-03-30T21:30:43.026Z,79.40
2019-03-30T21:33:12.294Z,81.27
2019-03-30T21:35:41.591Z,90.57
2019-03-30T21:38:10.578Z,91.27
2019-03-30T21:40:39.603Z,88.67
2019-03-30T21:43:08.616Z,81.10
2019-03-30T21:45:37.645Z,92.83
2019-03-30T21:48:06.666Z,97.13
2019-03-30T21:50:35.709Z,104.33
2019-03-30T21:53:04.729Z,99.43
2019-03-30T21:55:33.987Z,100.10
2019-03-30T21:58:03.102Z,100.53
2019-03-30T22:00:36.849Z,99.93
2019-03-30T22:03:06.125Z,103.87
2019-03-30T22:05:35.566Z,105.57
2019-03-30T22:08:05.413Z,85.90
2019-03-30T22:10:34.593Z,95.60
2019-03-30T22:13:03.603Z,99.53
2019-03-30T22:15:32.640Z,94.77
2019-03-30T22:18:01.731Z,96.87
2019-03-30T22:20:30.772Z,102.47
2019-03-30T22:22:59.808Z,108.30
2019-03-30T22:25:28.888Z,99.50
2019-03-30T22:27:57.928Z,102.50
2019-03-30T22:30:27.242Z,83.57
2019-03-30T22:32:56.466Z,97.70
2019-03-30T22:35:25.503Z,110.40
2019-03-30T22:37:54.523Z,102.80
2019-03-30T22:40:23.563Z,105.57
2019-03-30T22:42:52.584Z,105.90
2019-03-30T22:45:21.632Z,94.03
2019-03-30T22:47:50.660Z,100.73
2019-03-30T22:50:19.689Z,95.27
2019-03-30T22:52:48.713Z,99.10
2019-03-30T22:55:17.880Z,98.57
2019-03-30T22:57:46.899Z,90.87
2019-03-30T23:00:39.081Z,89.93
2019-03-30T23:03:07.028Z,92.90
2019-03-30T23:05:36.033Z,76.67
2019-03-30T23:08:05.059Z,79.43
2019-03-30T23:10:34.114Z,98.00
2019-03-30T23:13:03.170Z,89.97
2019-03-30T23:15:32.160Z,94.03
2019-03-30T23:18:01.161Z,73.47
2019-03-30T23:20:30.456Z,86.73
2019-03-30T23:22:59.518Z,79.37
2019-03-30T23:25:28.546Z,86.53
2019-03-30T23:27:57.539Z,72.97
2019-03-30T23:30:27.563Z,75.10
2019-03-30T23:32:56.562Z,74.90
2019-03-30T23:35:25.538Z,69.73
2019-03-30T23:37:54.612Z,75.53
2019-03-30T23:40:23.662Z,65.63
2019-03-30T23:42:52.682Z,67.90
2019-03-30T23:45:21.691Z,59.00
2019-03-30T23:47:50.708Z,58.20
2019-03-30T23:50:19.708Z,66.93
2019-03-30T23:52:48.748Z,67.80
2019-03-30T23:55:17.778Z,61.43
2019-03-30T23:57:46.776Z,60.87
